Terminal Aerodrome Forecast
Issued by NWS Cleveland, OH

Home | Current Version | Previous Version | Text Only | Print | Product List | Glossary Off
Versions: 1 2 3 4 5 6 7 8 9 10 11 12 13 14 15 16 17 18 19 20 21 22 23 24

000
FTUS41 KCLE 251400 AAB
TAFMFD
TAF AMD
KMFD 251440Z 2515/2612 19014G20KT P6SM SCT015 OVC030
      TEMPO 2515/2519 BKN015 OVC025
     FM251900 24015G25KT P6SM BKN025
     FM260000 21005KT P6SM SCT030 BKN250
     FM260900 36003KT P6SM VCSH BKN040 OVC100=

USA.gov is the U.S. government's official web portal to all federal, state and local government web resources and services.